Time,TemperatureF,DewpointF,PressureIn,WindDirection,WindDirectionDegrees,WindSpeedMPH,WindSpeedGustMPH,Humidity,HourlyPrecipIn,Conditions,Clouds,dailyrainin,SoftwareType,DateUTC
2013-02-14 00:00:00,36.5,33.8,29.32,SSW,201,8.7,11.5,90,0.00,,---,0.00,VWS V14.00,2013-02-14 06:00:00,
2013-02-14 00:05:00,36.5,33.8,29.32,SSW,195,6.0,8.2,90,0.00,,---,0.00,VWS V14.00,2013-02-14 06:05:00,
2013-02-14 00:10:00,36.3,33.7,29.32,SSW,202,5.4,7.4,90,0.00,,---,0.00,VWS V14.00,2013-02-14 06:10:00,
2013-02-14 00:15:00,36.3,33.7,29.32,SW,218,8.1,10.7,90,0.00,,---,0.00,VWS V14.00,2013-02-14 06:15:00,
2013-02-14 00:20:00,36.1,33.5,29.32,SSW,199,7.4,9.9,90,0.00,,---,0.00,VWS V14.00,2013-02-14 06:20:00,
2013-02-14 00:25:00,36.1,33.5,29.32,WSW,257,4.7,6.6,90,0.00,,---,0.00,VWS V14.00,2013-02-14 06:25:00,
2013-02-14 00:30:00,36.1,33.5,29.32,SSW,210,6.0,8.2,90,0.00,,---,0.00,VWS V14.00,2013-02-14 06:30:00,
2013-02-14 00:35:00,36.0,33.3,29.32,SSW,196,4.0,5.8,90,0.00,,---,0.00,VWS V14.00,2013-02-14 06:35:00,
2013-02-14 00:40:00,36.0,33.3,29.32,South,191,6.0,8.2,90,0.00,,---,0.00,VWS V14.00,2013-02-14 06:40:00,
2013-02-14 00:45:00,36.0,33.3,29.32,SSW,206,3.4,5.0,90,0.00,,---,0.00,VWS V14.00,2013-02-14 06:45:00,
2013-02-14 00:50:00,36.0,33.3,29.32,SSW,206,4.0,5.8,90,0.00,,---,0.00,VWS V14.00,2013-02-14 06:50:00,
2013-02-14 00:55:00,36.0,33.3,29.32,SSW,207,8.7,11.5,90,0.00,,---,0.00,VWS V14.00,2013-02-14 06:55:00,
2013-02-14 01:00:00,35.8,33.1,29.32,SW,218,5.4,7.4,90,0.00,,---,0.00,VWS V14.00,2013-02-14 07:00:00,
2013-02-14 01:05:00,35.8,33.1,29.32,SSW,202,4.7,11.5,90,0.00,,---,0.00,VWS V14.00,2013-02-14 07:05:00,
2013-02-14 01:10:00,35.8,33.1,29.35,West,263,3.4,6.6,90,0.00,,---,0.00,VWS V14.00,2013-02-14 07:10:00,
2013-02-14 01:15:00,35.8,33.1,29.35,SSW,201,8.7,11.5,90,0.00,,---,0.00,VWS V14.00,2013-02-14 07:15:00,
2013-02-14 01:20:00,35.8,33.4,29.35,WSW,242,4.0,5.8,91,0.00,,---,0.00,VWS V14.00,2013-02-14 07:20:00,
2013-02-14 01:25:00,35.8,33.4,29.35,SSW,211,0.0,6.6,91,0.00,,---,0.00,VWS V14.00,2013-02-14 07:25:00,
2013-02-14 01:30:00,35.6,33.2,29.35,SSW,206,0.0,1.0,91,0.00,,---,0.00,VWS V14.00,2013-02-14 07:30:00,
2013-02-14 01:35:00,35.6,33.2,29.32,SW,230,3.4,5.0,91,0.00,,---,0.00,VWS V14.00,2013-02-14 07:35:00,
2013-02-14 01:40:00,35.6,33.2,29.32,SW,218,6.0,9.9,91,0.00,,---,0.00,VWS V14.00,2013-02-14 07:40:00,
2013-02-14 01:45:00,35.8,33.4,29.32,West,262,5.4,7.4,91,0.00,,---,0.00,VWS V14.00,2013-02-14 07:45:00,
2013-02-14 01:50:00,35.8,33.4,29.32,SW,221,8.1,10.7,91,0.00,,---,0.00,VWS V14.00,2013-02-14 07:50:00,
2013-02-14 01:55:00,35.8,33.4,29.32,WSW,251,0.0,1.0,91,0.00,,---,0.00,VWS V14.00,2013-02-14 07:55:00,
2013-02-14 02:00:00,35.8,33.4,29.32,SW,222,3.4,5.0,91,0.00,,---,0.00,VWS V14.00,2013-02-14 08:00:00,
2013-02-14 02:05:00,35.8,33.4,29.32,SSW,210,4.0,5.8,91,0.00,,---,0.00,VWS V14.00,2013-02-14 08:05:00,
2013-02-14 02:10:00,35.8,33.4,29.32,SW,216,3.4,5.0,91,0.00,,---,0.00,VWS V14.00,2013-02-14 08:10:00,
2013-02-14 02:15:00,35.8,33.4,29.32,SSW,205,5.4,7.4,91,0.00,,---,0.00,VWS V14.00,2013-02-14 08:15:00,
2013-02-14 02:20:00,36.0,33.6,29.32,SW,229,4.7,6.6,91,0.00,,---,0.00,VWS V14.00,2013-02-14 08:20:00,
2013-02-14 02:25:00,35.8,33.7,29.32,SW,218,3.4,5.0,92,0.00,,---,0.00,VWS V14.00,2013-02-14 08:25:00,
2013-02-14 02:30:00,35.8,33.7,29.32,SSW,208,0.0,1.0,92,0.00,,---,0.00,VWS V14.00,2013-02-14 08:30:00,
2013-02-14 02:35:00,35.8,33.7,29.32,WSW,250,4.7,6.6,92,0.00,,---,0.00,VWS V14.00,2013-02-14 08:35:00,
2013-02-14 02:40:00,35.8,33.7,29.32,SW,216,4.0,5.8,92,0.00,,---,0.00,VWS V14.00,2013-02-14 08:40:00,
2013-02-14 02:45:00,35.6,33.5,29.32,WSW,238,5.4,7.4,92,0.00,,---,0.00,VWS V14.00,2013-02-14 08:45:00,
2013-02-14 02:50:00,35.6,33.5,29.32,SSW,192,0.0,1.0,92,0.00,,---,0.00,VWS V14.00,2013-02-14 08:50:00,
2013-02-14 02:55:00,35.4,33.3,29.32,SW,222,0.0,1.0,92,0.00,,---,0.00,VWS V14.00,2013-02-14 08:55:00,
2013-02-14 03:00:00,35.4,33.3,29.32,SW,234,4.7,6.6,92,0.00,,---,0.00,VWS V14.00,2013-02-14 09:00:00,
2013-02-14 03:05:00,35.4,33.3,29.32,SSW,211,6.0,8.2,92,0.00,,---,0.00,VWS V14.00,2013-02-14 09:05:00,
2013-02-14 03:10:00,35.4,33.3,29.32,SW,234,3.4,5.0,92,0.00,,---,0.00,VWS V14.00,2013-02-14 09:10:00,
2013-02-14 03:15:00,35.4,33.3,29.32,SW,219,0.0,1.0,92,0.00,,---,0.00,VWS V14.00,2013-02-14 09:15:00,
2013-02-14 03:20:00,35.4,33.3,29.32,SSW,209,4.0,5.8,92,0.00,,---,0.00,VWS V14.00,2013-02-14 09:20:00,
2013-02-14 03:25:00,35.4,33.3,29.32,SSW,208,0.0,1.0,92,0.00,,---,0.00,VWS V14.00,2013-02-14 09:25:00,
2013-02-14 03:30:00,35.4,33.3,29.32,SW,217,5.4,7.4,92,0.00,,---,0.00,VWS V14.00,2013-02-14 09:30:00,
2013-02-14 03:35:00,35.4,33.3,29.32,SSW,209,5.4,7.4,92,0.00,,---,0.00,VWS V14.00,2013-02-14 09:35:00,
2013-02-14 03:40:00,35.4,33.6,29.32,SSW,206,4.0,5.8,93,0.00,,---,0.00,VWS V14.00,2013-02-14 09:40:00,
2013-02-14 03:45:00,35.4,33.6,29.32,SSW,206,0.0,5.8,93,0.00,,---,0.00,VWS V14.00,2013-02-14 09:45:00,
2013-02-14 03:50:00,35.6,33.5,29.32,SSW,208,6.0,8.2,92,0.00,,---,0.00,VWS V14.00,2013-02-14 09:50:00,
2013-02-14 03:55:00,35.6,33.8,29.32,SSW,209,6.0,8.2,93,0.00,,---,0.00,VWS V14.00,2013-02-14 09:55:00,
2013-02-14 04:00:00,35.8,34.0,29.32,SSW,211,0.0,1.0,93,0.00,,---,0.00,VWS V14.00,2013-02-14 10:00:00,
2013-02-14 04:05:00,35.8,34.0,29.32,SW,231,5.4,9.9,93,0.00,,---,0.00,VWS V14.00,2013-02-14 10:05:00,
2013-02-14 04:10:00,36.1,34.3,29.32,SSW,207,4.0,5.8,93,0.00,,---,0.00,VWS V14.00,2013-02-14 10:10:00,
2013-02-14 04:15:00,36.1,34.3,29.32,SSW,207,3.4,5.0,93,0.00,,---,0.00,VWS V14.00,2013-02-14 10:15:00,
2013-02-14 04:20:00,36.0,34.1,29.32,SSW,212,4.7,6.6,93,0.00,,---,0.00,VWS V14.00,2013-02-14 10:20:00,
2013-02-14 04:25:00,36.0,34.1,29.32,SSW,193,4.0,7.4,93,0.00,,---,0.00,VWS V14.00,2013-02-14 10:25:00,
2013-02-14 04:30:00,36.0,34.1,29.32,SW,222,4.0,5.8,93,0.00,,---,0.00,VWS V14.00,2013-02-14 10:30:00,
2013-02-14 04:35:00,36.0,34.1,29.32,SW,232,5.4,7.4,93,0.00,,---,0.00,VWS V14.00,2013-02-14 10:35:00,
2013-02-14 04:40:00,36.0,34.1,29.32,SW,217,0.0,1.0,93,0.00,,---,0.00,VWS V14.00,2013-02-14 10:40:00,
2013-02-14 04:45:00,36.0,34.1,29.32,SSW,211,5.4,7.4,93,0.00,,---,0.00,VWS V14.00,2013-02-14 10:45:00,
2013-02-14 04:50:00,35.8,34.0,29.32,WSW,239,4.7,6.6,93,0.00,,---,0.00,VWS V14.00,2013-02-14 10:50:00,
2013-02-14 04:55:00,35.6,33.8,29.32,SW,229,4.0,8.2,93,0.00,,---,0.00,VWS V14.00,2013-02-14 10:55:00,
2013-02-14 05:00:00,35.8,34.0,29.32,SSW,207,6.0,8.2,93,0.00,,---,0.00,VWS V14.00,2013-02-14 11:00:00,
2013-02-14 05:05:00,36.0,34.1,29.32,SW,224,4.0,5.8,93,0.00,,---,0.00,VWS V14.00,2013-02-14 11:05:00,
2013-02-14 05:10:00,36.0,34.1,29.32,SSW,195,4.0,5.8,93,0.00,,---,0.00,VWS V14.00,2013-02-14 11:10:00,
2013-02-14 05:15:00,36.0,34.1,29.32,SSW,201,5.4,7.4,93,0.00,,---,0.00,VWS V14.00,2013-02-14 11:15:00,
2013-02-14 05:20:00,35.8,34.0,29.32,SW,222,7.4,9.9,93,0.00,,---,0.00,VWS V14.00,2013-02-14 11:20:00,
2013-02-14 05:25:00,36.1,34.3,29.32,SSW,210,8.1,10.7,93,0.00,,---,0.00,VWS V14.00,2013-02-14 11:25:00,
2013-02-14 05:30:00,36.0,34.1,29.32,SSW,198,4.7,6.6,93,0.00,,---,0.00,VWS V14.00,2013-02-14 11:30:00,
2013-02-14 05:35:00,36.0,34.1,29.29,SW,214,5.4,7.4,93,0.00,,---,0.00,VWS V14.00,2013-02-14 11:35:00,
2013-02-14 05:40:00,36.1,34.3,29.29,SW,221,4.7,6.6,93,0.00,,---,0.00,VWS V14.00,2013-02-14 11:40:00,
2013-02-14 05:45:00,36.0,34.1,29.29,SSW,209,4.7,7.4,93,0.00,,---,0.00,VWS V14.00,2013-02-14 11:45:00,
2013-02-14 05:50:00,36.1,34.3,29.29,WSW,241,6.0,9.9,93,0.00,,---,0.00,VWS V14.00,2013-02-14 11:50:00,
2013-02-14 05:55:00,36.1,34.3,29.29,SW,229,4.7,6.6,93,0.00,,---,0.00,VWS V14.00,2013-02-14 11:55:00,
2013-02-14 06:00:00,36.1,34.3,29.29,SW,217,4.7,6.6,93,0.00,,---,0.00,VWS V14.00,2013-02-14 12:00:00,
2013-02-14 06:05:00,36.5,34.7,29.32,SSW,212,8.7,11.5,93,0.00,,---,0.00,VWS V14.00,2013-02-14 12:05:00,
2013-02-14 06:10:00,36.5,34.7,29.32,SW,226,6.0,8.2,93,0.00,,---,0.00,VWS V14.00,2013-02-14 12:10:00,
2013-02-14 06:15:00,36.3,34.5,29.32,SW,235,4.7,10.7,93,0.00,,---,0.00,VWS V14.00,2013-02-14 12:15:00,
2013-02-14 06:20:00,36.3,34.5,29.32,WSW,238,8.1,10.7,93,0.00,,---,0.00,VWS V14.00,2013-02-14 12:20:00,
2013-02-14 06:25:00,36.3,34.5,29.32,SW,220,4.7,8.2,93,0.00,,---,0.00,VWS V14.00,2013-02-14 12:25:00,
2013-02-14 06:30:00,36.3,34.2,29.32,SW,216,5.4,7.4,92,0.00,,---,0.00,VWS V14.00,2013-02-14 12:30:00,
2013-02-14 06:35:00,36.3,34.2,29.32,SSW,200,4.7,6.6,92,0.00,,---,0.00,VWS V14.00,2013-02-14 12:35:00,
2013-02-14 06:40:00,36.3,34.2,29.32,SSW,213,6.0,8.2,92,0.00,,---,0.00,VWS V14.00,2013-02-14 12:40:00,
2013-02-14 06:45:00,36.3,34.2,29.32,SW,235,8.7,11.5,92,0.00,,---,0.00,VWS V14.00,2013-02-14 12:45:00,
2013-02-14 06:50:00,36.3,34.2,29.32,SW,214,6.0,8.2,92,0.00,,---,0.00,VWS V14.00,2013-02-14 12:50:00,
2013-02-14 06:55:00,36.3,34.2,29.32,SW,227,6.0,8.2,92,0.00,,---,0.00,VWS V14.00,2013-02-14 12:55:00,
2013-02-14 07:00:00,36.3,34.2,29.32,SW,219,8.1,10.7,92,0.00,,---,0.00,VWS V14.00,2013-02-14 13:00:00,
2013-02-14 07:05:00,36.5,34.4,29.32,SW,226,5.4,7.4,92,0.00,,---,0.00,VWS V14.00,2013-02-14 13:05:00,
2013-02-14 07:10:00,36.7,34.6,29.32,SW,235,8.1,10.7,92,0.00,,---,0.00,VWS V14.00,2013-02-14 13:10:00,
2013-02-14 07:15:00,36.7,34.6,29.32,SSW,194,8.1,10.7,92,0.00,,---,0.00,VWS V14.00,2013-02-14 13:15:00,
2013-02-14 07:20:00,36.9,34.8,29.32,SW,214,8.1,11.5,92,0.00,,---,0.00,VWS V14.00,2013-02-14 13:20:00,
2013-02-14 07:25:00,37.2,35.1,29.32,SW,221,5.4,8.2,92,0.00,,---,0.00,VWS V14.00,2013-02-14 13:25:00,
2013-02-14 07:30:00,37.6,35.2,29.32,SSW,213,6.0,8.2,91,0.00,,---,0.00,VWS V14.00,2013-02-14 13:30:00,
2013-02-14 07:35:00,37.8,35.4,29.32,South,190,8.1,10.7,91,0.00,,---,0.00,VWS V14.00,2013-02-14 13:35:00,
2013-02-14 07:40:00,37.9,35.5,29.32,WSW,253,5.4,7.4,91,0.00,,---,0.00,VWS V14.00,2013-02-14 13:40:00,
2013-02-14 07:45:00,38.1,35.7,29.32,SSW,208,4.0,5.8,91,0.00,,---,0.00,VWS V14.00,2013-02-14 13:45:00,
2013-02-14 07:50:00,38.7,36.3,29.32,SSW,205,6.0,8.2,91,0.00,,---,0.00,VWS V14.00,2013-02-14 13:50:00,
2013-02-14 07:55:00,38.8,36.2,29.32,WSW,240,4.7,12.3,90,0.00,,---,0.00,VWS V14.00,2013-02-14 13:55:00,
2013-02-14 08:00:00,39.2,36.5,29.32,SW,226,8.7,11.5,90,0.00,,---,0.00,VWS V14.00,2013-02-14 14:00:00,
2013-02-14 08:05:00,39.7,36.8,29.32,WSW,250,5.4,7.4,89,0.00,,---,0.00,VWS V14.00,2013-02-14 14:05:00,
2013-02-14 08:10:00,39.9,37.0,29.32,SSW,206,8.7,11.5,89,0.00,,---,0.00,VWS V14.00,2013-02-14 14:10:00,
2013-02-14 08:15:00,40.5,37.2,29.32,SW,218,9.4,14.7,88,0.00,,---,0.00,VWS V14.00,2013-02-14 14:15:00,
2013-02-14 08:20:00,40.6,37.1,29.32,SSW,196,13.1,16.7,87,0.00,,---,0.00,VWS V14.00,2013-02-14 14:20:00,
2013-02-14 08:25:00,41.0,37.1,29.32,WSW,240,10.7,13.9,86,0.00,,---,0.00,VWS V14.00,2013-02-14 14:25:00,
2013-02-14 08:31:00,41.4,37.2,29.32,SW,235,6.7,9.1,85,0.00,,---,0.00,VWS V14.00,2013-02-14 14:31:00,
2013-02-14 08:36:00,41.9,37.4,29.35,SSW,213,9.4,12.3,84,0.00,,---,0.00,VWS V14.00,2013-02-14 14:36:00,
2013-02-14 08:41:00,42.1,37.3,29.35,SSW,210,12.1,15.5,83,0.00,,---,0.00,VWS V14.00,2013-02-14 14:41:00,
2013-02-14 08:46:00,42.6,37.2,29.35,SW,217,9.4,12.3,81,0.00,,---,0.00,VWS V14.00,2013-02-14 14:46:00,
2013-02-14 08:51:00,42.8,36.8,29.35,SSW,203,8.1,10.7,79,0.00,,---,0.00,VWS V14.00,2013-02-14 14:51:00,
2013-02-14 08:56:00,43.5,37.1,29.35,SSW,200,8.7,11.5,78,0.00,,---,0.00,VWS V14.00,2013-02-14 14:56:00,
2013-02-14 09:01:00,44.1,37.3,29.35,SSW,200,8.7,11.5,77,0.00,,---,0.00,VWS V14.00,2013-02-14 15:01:00,
2013-02-14 09:06:00,44.1,37.3,29.35,WSW,256,7.4,9.9,77,0.00,,---,0.00,VWS V14.00,2013-02-14 15:06:00,
2013-02-14 09:11:00,44.8,37.0,29.35,SSW,205,8.7,11.5,74,0.00,,---,0.00,VWS V14.00,2013-02-14 15:11:00,
2013-02-14 09:16:00,45.1,37.4,29.35,West,265,5.4,7.4,74,0.00,,---,0.00,VWS V14.00,2013-02-14 15:16:00,
2013-02-14 09:21:00,45.1,37.4,29.35,WSW,246,9.4,12.3,74,0.00,,---,0.00,VWS V14.00,2013-02-14 15:21:00,
2013-02-14 09:26:00,45.9,37.0,29.35,West,267,11.4,14.7,71,0.00,,---,0.00,VWS V14.00,2013-02-14 15:26:00,
2013-02-14 09:31:00,46.2,37.0,29.35,West,267,11.4,14.7,70,0.00,,---,0.00,VWS V14.00,2013-02-14 15:31:00,
2013-02-14 09:36:00,46.4,36.8,29.35,SSW,193,11.4,14.7,69,0.00,,---,0.00,VWS V14.00,2013-02-14 15:36:00,
2013-02-14 09:41:00,46.6,36.6,29.35,WNW,288,5.4,12.3,68,0.00,,---,0.00,VWS V14.00,2013-02-14 15:41:00,
2013-02-14 09:46:00,46.9,36.6,29.35,SW,234,9.4,12.3,67,0.00,,---,0.00,VWS V14.00,2013-02-14 15:46:00,
2013-02-14 09:51:00,47.1,36.4,29.35,SW,230,12.4,15.9,66,0.00,,---,0.00,VWS V14.00,2013-02-14 15:51:00,
2013-02-14 09:56:00,47.5,36.7,29.35,West,270,6.0,8.2,66,0.00,,---,0.00,VWS V14.00,2013-02-14 15:56:00,
2013-02-14 10:01:00,48.0,37.2,29.35,SW,218,10.1,13.1,66,0.00,,---,0.00,VWS V14.00,2013-02-14 16:01:00,
2013-02-14 10:06:00,48.4,36.4,29.35,WSW,244,9.4,12.3,63,0.00,,---,0.00,VWS V14.00,2013-02-14 16:06:00,
2013-02-14 10:11:00,48.7,36.7,29.35,West,267,12.1,15.5,63,0.00,,---,0.00,VWS V14.00,2013-02-14 16:11:00,
2013-02-14 10:16:00,48.7,36.3,29.35,SW,222,8.1,11.5,62,0.00,,---,0.00,VWS V14.00,2013-02-14 16:16:00,
2013-02-14 10:21:00,49.5,36.6,29.35,WSW,240,11.4,16.7,61,0.00,,---,0.00,VWS V14.00,2013-02-14 16:21:00,
2013-02-14 10:26:00,49.6,35.9,29.35,WSW,240,5.4,12.3,59,0.00,,---,0.00,VWS V14.00,2013-02-14 16:26:00,
2013-02-14 10:31:00,50.2,36.0,29.35,SW,224,8.1,10.7,58,0.00,,---,0.00,VWS V14.00,2013-02-14 16:31:00,
2013-02-14 10:36:00,50.2,35.5,29.35,SW,234,8.7,14.7,57,0.00,,---,0.00,VWS V14.00,2013-02-14 16:36:00,
2013-02-14 10:41:00,50.2,35.1,29.35,SW,229,9.4,12.3,56,0.00,,---,0.00,VWS V14.00,2013-02-14 16:41:00,
2013-02-14 10:46:00,50.2,34.7,29.35,West,266,9.4,12.3,55,0.00,,---,0.00,VWS V14.00,2013-02-14 16:46:00,
2013-02-14 10:51:00,50.2,34.7,29.35,WNW,286,15.1,19.1,55,0.00,,---,0.00,VWS V14.00,2013-02-14 16:51:00,
2013-02-14 10:56:00,50.7,35.2,29.35,West,272,11.4,15.5,55,0.00,,---,0.00,VWS V14.00,2013-02-14 16:56:00,
2013-02-14 11:01:00,51.1,36.0,29.35,South,190,8.1,10.7,56,0.00,,---,0.00,VWS V14.00,2013-02-14 17:01:00,
2013-02-14 11:06:00,51.4,35.8,29.35,WSW,243,8.7,11.5,55,0.00,,---,0.00,VWS V14.00,2013-02-14 17:06:00,
2013-02-14 11:11:00,51.3,35.2,29.35,WNW,283,15.8,19.9,54,0.00,,---,0.00,VWS V14.00,2013-02-14 17:11:00,
2013-02-14 11:16:00,51.4,35.4,29.35,WSW,255,12.4,15.9,54,0.00,,---,0.00,VWS V14.00,2013-02-14 17:16:00,
2013-02-14 11:21:00,51.6,35.1,29.35,SSW,197,13.1,16.7,53,0.00,,---,0.00,VWS V14.00,2013-02-14 17:21:00,
2013-02-14 11:26:00,52.0,35.4,29.35,West,279,6.0,8.2,53,0.00,,---,0.00,VWS V14.00,2013-02-14 17:26:00,
2013-02-14 11:31:00,52.2,35.6,29.35,SW,221,8.7,16.7,53,0.00,,---,0.00,VWS V14.00,2013-02-14 17:31:00,
2013-02-14 11:36:00,52.5,35.9,29.35,WSW,255,12.1,15.5,53,0.00,,---,0.00,VWS V14.00,2013-02-14 17:36:00,
2013-02-14 11:41:00,52.3,36.2,29.35,West,277,13.1,16.7,54,0.00,,---,0.00,VWS V14.00,2013-02-14 17:41:00,
2013-02-14 11:46:00,52.5,36.4,29.35,WSW,244,12.1,15.5,54,0.00,,---,0.00,VWS V14.00,2013-02-14 17:46:00,
2013-02-14 11:51:00,52.7,36.5,29.35,West,264,6.0,8.2,54,0.00,,---,0.00,VWS V14.00,2013-02-14 17:51:00,
2013-02-14 11:56:00,53.1,36.4,29.35,West,269,13.1,16.7,53,0.00,,---,0.00,VWS V14.00,2013-02-14 17:56:00,
2013-02-14 12:01:00,53.4,36.2,29.35,West,273,15.1,19.1,52,0.00,,---,0.00,VWS V14.00,2013-02-14 18:01:00,
2013-02-14 12:06:00,53.8,36.6,29.35,SSW,207,12.1,15.5,52,0.00,,---,0.00,VWS V14.00,2013-02-14 18:06:00,
2013-02-14 12:11:00,53.8,36.1,29.35,SW,227,9.4,12.3,51,0.00,,---,0.00,VWS V14.00,2013-02-14 18:11:00,
2013-02-14 12:16:00,54.0,36.3,29.35,West,273,8.7,11.5,51,0.00,,---,0.00,VWS V14.00,2013-02-14 18:16:00,
2013-02-14 12:21:00,54.3,37.1,29.32,West,264,8.1,10.7,52,0.00,,---,0.00,VWS V14.00,2013-02-14 18:21:00,
2013-02-14 12:26:00,54.9,37.1,29.32,WNW,294,7.4,10.7,51,0.00,,---,0.00,VWS V14.00,2013-02-14 18:26:00,
2013-02-14 12:31:00,55.4,37.6,29.32,WNW,290,8.7,11.5,51,0.00,,---,0.00,VWS V14.00,2013-02-14 18:31:00,
2013-02-14 12:36:00,55.4,36.6,29.32,West,268,8.7,11.5,49,0.00,,---,0.00,VWS V14.00,2013-02-14 18:36:00,
2013-02-14 12:41:00,55.9,37.6,29.32,West,274,8.1,10.7,50,0.00,,---,0.00,VWS V14.00,2013-02-14 18:41:00,
2013-02-14 12:46:00,56.1,37.2,29.32,SSW,203,10.7,13.9,49,0.00,,---,0.00,VWS V14.00,2013-02-14 18:46:00,
2013-02-14 12:51:00,56.8,37.9,29.32,West,281,5.4,8.2,49,0.00,,---,0.00,VWS V14.00,2013-02-14 18:51:00,
2013-02-14 12:56:00,57.0,38.1,29.32,West,262,11.4,16.7,49,0.00,,---,0.00,VWS V14.00,2013-02-14 18:56:00,
2013-02-14 13:01:00,57.0,37.5,29.32,SW,225,12.1,15.5,48,0.00,,---,0.00,VWS V14.00,2013-02-14 19:01:00,
2013-02-14 13:06:00,56.8,36.8,29.32,WSW,244,6.0,15.9,47,0.00,,---,0.00,VWS V14.00,2013-02-14 19:06:00,
2013-02-14 13:11:00,57.0,36.5,29.32,SW,227,5.4,7.4,46,0.00,,---,0.00,VWS V14.00,2013-02-14 19:11:00,
2013-02-14 13:16:00,57.7,37.7,29.32,West,278,7.4,9.9,47,0.00,,---,0.00,VWS V14.00,2013-02-14 19:16:00,
2013-02-14 13:21:00,57.6,36.4,29.32,SW,220,12.4,15.9,45,0.00,,---,0.00,VWS V14.00,2013-02-14 19:21:00,
2013-02-14 13:26:00,57.9,36.7,29.32,West,268,8.1,10.7,45,0.00,,---,0.00,VWS V14.00,2013-02-14 19:26:00,
2013-02-14 13:31:00,57.7,35.4,29.32,West,278,8.7,16.7,43,0.00,,---,0.00,VWS V14.00,2013-02-14 19:31:00,
2013-02-14 13:36:00,57.9,35.6,29.32,West,278,8.1,10.7,43,0.00,,---,0.00,VWS V14.00,2013-02-14 19:36:00,
2013-02-14 13:41:00,57.7,35.4,29.32,SW,223,11.4,14.7,43,0.00,,---,0.00,VWS V14.00,2013-02-14 19:41:00,
2013-02-14 13:46:00,58.5,36.1,29.32,WNW,289,14.4,18.3,43,0.00,,---,0.00,VWS V14.00,2013-02-14 19:46:00,
2013-02-14 13:51:00,58.5,35.5,29.32,West,267,7.4,9.9,42,0.00,,---,0.00,VWS V14.00,2013-02-14 19:51:00,
2013-02-14 13:56:00,59.0,36.0,29.32,South,182,8.1,10.7,42,0.00,,---,0.00,VWS V14.00,2013-02-14 19:56:00,
2013-02-14 14:01:00,59.2,36.1,29.32,West,277,5.4,7.4,42,0.00,,---,0.00,VWS V14.00,2013-02-14 20:01:00,
2013-02-14 14:06:00,59.4,36.3,29.32,WSW,247,8.7,11.5,42,0.00,,---,0.00,VWS V14.00,2013-02-14 20:06:00,
2013-02-14 14:11:00,59.4,35.7,29.32,West,280,9.4,12.3,41,0.00,,---,0.00,VWS V14.00,2013-02-14 20:11:00,
2013-02-14 14:16:00,59.4,35.1,29.32,SW,217,6.0,8.2,40,0.00,,---,0.00,VWS V14.00,2013-02-14 20:16:00,
2013-02-14 14:21:00,59.4,35.1,29.32,WSW,250,11.4,14.7,40,0.00,,---,0.00,VWS V14.00,2013-02-14 20:21:00,
2013-02-14 14:26:00,59.7,36.0,29.32,WSW,256,9.4,12.3,41,0.00,,---,0.00,VWS V14.00,2013-02-14 20:26:00,
2013-02-14 14:31:00,59.7,35.4,29.32,SW,216,6.0,8.2,40,0.00,,---,0.00,VWS V14.00,2013-02-14 20:31:00,
2013-02-14 14:36:00,60.1,35.7,29.32,WSW,245,6.0,8.2,40,0.00,,---,0.00,VWS V14.00,2013-02-14 20:36:00,
2013-02-14 14:41:00,59.9,35.5,29.32,SW,230,8.1,10.7,40,0.00,,---,0.00,VWS V14.00,2013-02-14 20:41:00,
2013-02-14 14:46:00,59.5,35.2,29.32,West,259,8.1,10.7,40,0.00,,---,0.00,VWS V14.00,2013-02-14 20:46:00,
2013-02-14 14:51:00,59.5,35.2,29.32,West,268,9.4,14.7,40,0.00,,---,0.00,VWS V14.00,2013-02-14 20:51:00,
2013-02-14 14:56:00,59.9,35.5,29.32,West,261,8.1,10.7,40,0.00,,---,0.00,VWS V14.00,2013-02-14 20:56:00,
2013-02-14 15:01:00,59.7,34.7,29.32,West,267,6.0,12.3,39,0.00,,---,0.00,VWS V14.00,2013-02-14 21:01:00,
2013-02-14 15:06:00,60.1,35.7,29.32,WSW,253,6.0,12.3,40,0.00,,---,0.00,VWS V14.00,2013-02-14 21:06:00,
2013-02-14 15:11:00,60.1,35.1,29.32,WSW,258,8.7,16.7,39,0.00,,---,0.00,VWS V14.00,2013-02-14 21:11:00,
2013-02-14 15:16:00,60.6,35.5,29.32,WSW,253,6.0,12.3,39,0.00,,---,0.00,VWS V14.00,2013-02-14 21:16:00,
2013-02-14 15:21:00,60.1,35.1,29.32,SW,226,5.4,7.4,39,0.00,,---,0.00,VWS V14.00,2013-02-14 21:21:00,
2013-02-14 15:26:00,60.4,36.0,29.32,WSW,237,0.0,1.0,40,0.00,,---,0.00,VWS V14.00,2013-02-14 21:26:00,
2013-02-14 15:31:00,60.4,35.4,29.32,SW,229,9.4,13.9,39,0.00,,---,0.00,VWS V14.00,2013-02-14 21:31:00,
2013-02-14 15:36:00,60.3,35.2,29.32,West,264,4.7,6.6,39,0.00,,---,0.00,VWS V14.00,2013-02-14 21:36:00,
2013-02-14 15:41:00,59.9,34.9,29.32,West,266,5.4,7.4,39,0.00,,---,0.00,VWS V14.00,2013-02-14 21:41:00,
2013-02-14 15:46:00,60.3,35.2,29.32,SSW,199,6.0,12.3,39,0.00,,---,0.00,VWS V14.00,2013-02-14 21:46:00,
2013-02-14 15:51:00,60.1,35.1,29.32,SW,222,6.0,8.2,39,0.00,,---,0.00,VWS V14.00,2013-02-14 21:51:00,
2013-02-14 15:56:00,60.1,35.7,29.32,SSW,198,7.4,11.5,40,0.00,,---,0.00,VWS V14.00,2013-02-14 21:56:00,
2013-02-14 16:01:00,60.1,35.7,29.32,SSW,209,8.7,11.5,40,0.00,,---,0.00,VWS V14.00,2013-02-14 22:01:00,
2013-02-14 16:06:00,59.5,35.2,29.32,WSW,253,4.7,15.5,40,0.00,,---,0.00,VWS V14.00,2013-02-14 22:06:00,
2013-02-14 16:11:00,59.2,34.9,29.32,WSW,244,3.4,7.4,40,0.00,,---,0.00,VWS V14.00,2013-02-14 22:11:00,
2013-02-14 16:16:00,58.6,35.0,29.32,SW,230,10.1,13.1,41,0.00,,---,0.00,VWS V14.00,2013-02-14 22:16:00,
2013-02-14 16:21:00,58.6,35.0,29.32,West,266,5.4,10.7,41,0.00,,---,0.00,VWS V14.00,2013-02-14 22:21:00,
2013-02-14 16:26:00,58.1,34.5,29.32,WSW,250,6.0,8.2,41,0.00,,---,0.00,VWS V14.00,2013-02-14 22:26:00,
2013-02-14 16:31:00,58.1,35.2,29.32,West,273,8.1,10.7,42,0.00,,---,0.00,VWS V14.00,2013-02-14 22:31:00,
2013-02-14 16:36:00,57.9,35.0,29.32,WSW,249,5.4,10.7,42,0.00,,---,0.00,VWS V14.00,2013-02-14 22:36:00,
2013-02-14 16:41:00,57.2,34.3,29.32,West,268,4.0,5.8,42,0.00,,---,0.00,VWS V14.00,2013-02-14 22:41:00,
2013-02-14 16:46:00,56.7,34.4,29.32,WSW,251,6.0,8.2,43,0.00,,---,0.00,VWS V14.00,2013-02-14 22:46:00,
2013-02-14 16:51:00,56.1,34.5,29.32,WSW,241,6.0,8.2,44,0.00,,---,0.00,VWS V14.00,2013-02-14 22:51:00,
2013-02-14 16:56:00,55.9,34.9,29.32,WSW,251,5.4,7.4,45,0.00,,---,0.00,VWS V14.00,2013-02-14 22:56:00,
2013-02-14 17:01:00,55.8,34.8,29.32,West,265,5.4,7.4,45,0.00,,---,0.00,VWS V14.00,2013-02-14 23:01:00,
2013-02-14 17:06:00,55.2,34.8,29.32,West,277,4.7,6.6,46,0.00,,---,0.00,VWS V14.00,2013-02-14 23:06:00,
2013-02-14 17:11:00,54.3,34.5,29.32,West,261,4.7,6.6,47,0.00,,---,0.00,VWS V14.00,2013-02-14 23:11:00,
2013-02-14 17:16:00,53.6,34.4,29.32,WSW,250,4.7,6.6,48,0.00,,---,0.00,VWS V14.00,2013-02-14 23:16:00,
2013-02-14 17:21:00,53.1,34.4,29.32,WSW,253,3.4,5.8,49,0.00,,---,0.00,VWS V14.00,2013-02-14 23:21:00,
2013-02-14 17:26:00,52.7,34.1,29.35,WSW,247,4.7,6.6,49,0.00,,---,0.00,VWS V14.00,2013-02-14 23:26:00,
2013-02-14 17:31:00,51.8,33.3,29.35,West,261,5.4,7.4,49,0.00,,---,0.00,VWS V14.00,2013-02-14 23:31:00,
2013-02-14 17:36:00,51.6,33.6,29.35,WSW,258,4.0,5.8,50,0.00,,---,0.00,VWS V14.00,2013-02-14 23:36:00,
2013-02-14 17:41:00,51.4,33.4,29.35,WSW,238,4.7,6.6,50,0.00,,---,0.00,VWS V14.00,2013-02-14 23:41:00,
2013-02-14 17:46:00,50.9,33.4,29.35,WSW,248,4.0,5.8,51,0.00,,---,0.00,VWS V14.00,2013-02-14 23:46:00,
2013-02-14 17:51:00,50.7,33.3,29.35,WSW,241,4.7,6.6,51,0.00,,---,0.00,VWS V14.00,2013-02-14 23:51:00,
2013-02-14 17:56:00,50.5,33.1,29.35,WSW,246,4.7,6.6,51,0.00,,---,0.00,VWS V14.00,2013-02-14 23:56:00,
2013-02-14 18:01:00,50.2,33.2,29.35,WSW,247,4.0,5.8,52,0.00,,---,0.00,VWS V14.00,2013-02-15 00:01:00,
2013-02-14 18:06:00,50.0,33.1,29.35,WSW,241,5.4,7.4,52,0.00,,---,0.00,VWS V14.00,2013-02-15 00:06:00,
2013-02-14 18:11:00,49.8,32.9,29.35,WSW,243,6.0,8.2,52,0.00,,---,0.00,VWS V14.00,2013-02-15 00:11:00,
2013-02-14 18:16:00,49.3,32.9,29.35,WSW,245,5.4,7.4,53,0.00,,---,0.00,VWS V14.00,2013-02-15 00:16:00,
2013-02-14 18:21:00,49.3,32.9,29.35,WSW,237,4.7,6.6,53,0.00,,---,0.00,VWS V14.00,2013-02-15 00:21:00,
2013-02-14 18:26:00,49.3,32.9,29.35,WSW,258,4.0,5.8,53,0.00,,---,0.00,VWS V14.00,2013-02-15 00:26:00,
2013-02-14 18:31:00,49.1,32.7,29.35,SW,234,4.0,5.8,53,0.00,,---,0.00,VWS V14.00,2013-02-15 00:31:00,
2013-02-14 18:36:00,49.3,32.9,29.35,SW,215,4.7,6.6,53,0.00,,---,0.00,VWS V14.00,2013-02-15 00:36:00,
2013-02-14 18:41:00,49.3,32.9,29.35,SW,231,4.7,6.6,53,0.00,,---,0.00,VWS V14.00,2013-02-15 00:41:00,
2013-02-14 18:46:00,49.3,32.9,29.35,WSW,237,4.0,5.8,53,0.00,,---,0.00,VWS V14.00,2013-02-15 00:46:00,
2013-02-14 18:51:00,49.1,32.7,29.35,WSW,237,4.0,5.8,53,0.00,,---,0.00,VWS V14.00,2013-02-15 00:51:00,
2013-02-14 18:56:00,49.1,32.7,29.35,WSW,238,4.0,5.8,53,0.00,,---,0.00,VWS V14.00,2013-02-15 00:56:00,
2013-02-14 19:01:00,48.9,33.0,29.35,WSW,238,4.0,6.6,54,0.00,,---,0.00,VWS V14.00,2013-02-15 01:01:00,
2013-02-14 19:06:00,48.7,32.8,29.35,SW,235,4.0,6.6,54,0.00,,---,0.00,VWS V14.00,2013-02-15 01:06:00,
2013-02-14 19:11:00,48.7,32.8,29.35,SW,235,4.0,5.8,54,0.00,,---,0.00,VWS V14.00,2013-02-15 01:11:00,
2013-02-14 19:16:00,48.4,32.5,29.35,SSW,211,3.4,5.0,54,0.00,,---,0.00,VWS V14.00,2013-02-15 01:16:00,
2013-02-14 19:21:00,48.0,32.6,29.35,SW,214,4.7,6.6,55,0.00,,---,0.00,VWS V14.00,2013-02-15 01:21:00,
2013-02-14 19:26:00,47.8,32.5,29.35,SW,214,4.0,5.8,55,0.00,,---,0.00,VWS V14.00,2013-02-15 01:26:00,
2013-02-14 19:31:00,47.5,32.6,29.35,SW,214,4.7,6.6,56,0.00,,---,0.00,VWS V14.00,2013-02-15 01:31:00,
2013-02-14 19:36:00,47.3,32.4,29.35,WSW,238,4.7,6.6,56,0.00,,---,0.00,VWS V14.00,2013-02-15 01:36:00,
2013-02-14 19:41:00,47.3,32.8,29.35,WSW,238,4.7,6.6,57,0.00,,---,0.00,VWS V14.00,2013-02-15 01:41:00,
2013-02-14 19:46:00,47.5,33.0,29.35,WSW,237,4.0,5.8,57,0.00,,---,0.00,VWS V14.00,2013-02-15 01:46:00,
2013-02-14 19:51:00,47.5,33.5,29.35,WSW,244,4.0,6.6,58,0.00,,---,0.00,VWS V14.00,2013-02-15 01:51:00,
2013-02-14 19:56:00,47.3,33.3,29.35,WSW,241,5.4,7.4,58,0.00,,---,0.00,VWS V14.00,2013-02-15 01:56:00,
2013-02-14 20:01:00,46.8,33.2,29.35,WSW,241,4.7,6.6,59,0.00,,---,0.00,VWS V14.00,2013-02-15 02:01:00,
2013-02-14 20:06:00,46.8,33.2,29.38,WSW,240,5.4,7.4,59,0.00,,---,0.00,VWS V14.00,2013-02-15 02:06:00,
2013-02-14 20:11:00,46.6,33.5,29.38,WSW,243,4.7,6.6,60,0.00,,---,0.00,VWS V14.00,2013-02-15 02:11:00,
2013-02-14 20:16:00,46.6,33.5,29.38,WSW,244,4.0,5.8,60,0.00,,---,0.00,VWS V14.00,2013-02-15 02:16:00,
2013-02-14 20:21:00,46.4,33.3,29.35,WSW,237,5.4,8.2,60,0.00,,---,0.00,VWS V14.00,2013-02-15 02:21:00,
2013-02-14 20:26:00,46.8,34.0,29.35,WSW,254,4.7,6.6,61,0.00,,---,0.00,VWS V14.00,2013-02-15 02:26:00,
2013-02-14 20:31:00,47.1,34.4,29.35,WSW,239,4.7,8.2,61,0.00,,---,0.00,VWS V14.00,2013-02-15 02:31:00,
2013-02-14 20:36:00,47.1,34.4,29.38,SW,235,6.0,8.2,61,0.00,,---,0.00,VWS V14.00,2013-02-15 02:36:00,
2013-02-14 20:41:00,47.3,35.0,29.38,SW,234,4.7,6.6,62,0.00,,---,0.00,VWS V14.00,2013-02-15 02:41:00,
2013-02-14 20:46:00,47.3,35.0,29.38,WSW,237,6.0,8.2,62,0.00,,---,0.00,VWS V14.00,2013-02-15 02:46:00,
2013-02-14 20:51:00,47.3,35.0,29.38,WSW,242,4.7,6.6,62,0.00,,---,0.00,VWS V14.00,2013-02-15 02:51:00,
2013-02-14 20:56:00,47.3,35.0,29.38,WSW,244,4.0,5.8,62,0.00,,---,0.00,VWS V14.00,2013-02-15 02:56:00,
2013-02-14 21:01:00,46.9,34.6,29.38,West,259,4.0,5.8,62,0.00,,---,0.00,VWS V14.00,2013-02-15 03:01:00,
2013-02-14 21:06:00,46.6,34.3,29.38,WSW,253,5.4,7.4,62,0.00,,---,0.00,VWS V14.00,2013-02-15 03:06:00,
2013-02-14 21:11:00,46.0,34.2,29.38,WSW,251,5.4,7.4,63,0.00,,---,0.00,VWS V14.00,2013-02-15 03:11:00,
2013-02-14 21:16:00,46.0,34.6,29.38,WSW,255,4.0,5.8,64,0.00,,---,0.00,VWS V14.00,2013-02-15 03:16:00,
2013-02-14 21:21:00,46.0,34.6,29.38,WSW,258,4.7,6.6,64,0.00,,---,0.00,VWS V14.00,2013-02-15 03:21:00,
2013-02-14 21:26:00,46.0,35.0,29.38,West,269,5.4,7.4,65,0.00,,---,0.00,VWS V14.00,2013-02-15 03:26:00,
2013-02-14 21:31:00,46.0,35.0,29.38,West,267,5.4,7.4,65,0.00,,---,0.00,VWS V14.00,2013-02-15 03:31:00,
2013-02-14 21:36:00,46.0,35.0,29.38,West,265,6.0,8.2,65,0.00,,---,0.00,VWS V14.00,2013-02-15 03:36:00,
2013-02-14 21:41:00,46.2,35.5,29.38,West,267,4.7,6.6,66,0.00,,---,0.00,VWS V14.00,2013-02-15 03:41:00,
2013-02-14 21:46:00,46.2,35.5,29.38,West,271,4.7,7.4,66,0.00,,---,0.00,VWS V14.00,2013-02-15 03:46:00,
2013-02-14 21:51:00,46.4,35.3,29.38,West,267,4.0,5.8,65,0.00,,---,0.00,VWS V14.00,2013-02-15 03:51:00,
2013-02-14 21:56:00,46.4,35.3,29.38,West,276,6.0,8.2,65,0.00,,---,0.00,VWS V14.00,2013-02-15 03:56:00,
2013-02-14 22:01:00,46.4,35.3,29.38,West,271,4.7,7.4,65,0.00,,---,0.00,VWS V14.00,2013-02-15 04:01:00,
2013-02-14 22:06:00,46.8,35.6,29.38,NW,313,6.0,8.2,65,0.00,,---,0.00,VWS V14.00,2013-02-15 04:06:00,
2013-02-14 22:11:00,46.8,36.0,29.38,NW,320,0.0,1.0,66,0.00,,---,0.00,VWS V14.00,2013-02-15 04:11:00,
2013-02-14 22:16:00,47.7,36.9,29.38,WNW,294,4.0,8.2,66,0.00,,---,0.00,VWS V14.00,2013-02-15 04:16:00,
2013-02-14 22:21:00,47.8,36.7,29.38,West,276,4.7,6.6,65,0.00,,---,0.00,VWS V14.00,2013-02-15 04:21:00,
2013-02-14 22:26:00,47.8,36.7,29.38,West,263,3.4,5.8,65,0.00,,---,0.00,VWS V14.00,2013-02-15 04:26:00,
2013-02-14 22:31:00,47.3,36.2,29.38,West,274,4.0,5.8,65,0.00,,---,0.00,VWS V14.00,2013-02-15 04:31:00,
2013-02-14 22:36:00,46.9,35.8,29.38,West,276,3.4,5.8,65,0.00,,---,0.00,VWS V14.00,2013-02-15 04:36:00,
2013-02-14 22:41:00,46.8,35.6,29.38,NW,311,0.0,5.0,65,0.00,,---,0.00,VWS V14.00,2013-02-15 04:41:00,
2013-02-14 22:46:00,46.2,35.5,29.38,NNW,340,4.0,5.8,66,0.00,,---,0.00,VWS V14.00,2013-02-15 04:46:00,
2013-02-14 22:51:00,45.5,34.8,29.38,West,268,4.0,5.8,66,0.00,,---,0.00,VWS V14.00,2013-02-15 04:51:00,
2013-02-14 22:56:00,45.1,34.8,29.38,West,276,4.0,5.8,67,0.00,,---,0.00,VWS V14.00,2013-02-15 04:56:00,
2013-02-14 23:00:00,44.6,34.3,29.38,West,272,4.7,6.6,67,0.00,,---,0.00,VWS V14.00,2013-02-15 05:00:00,
2013-02-14 23:05:00,44.1,34.2,29.38,WSW,257,4.7,6.6,68,0.00,,---,0.00,VWS V14.00,2013-02-15 05:05:00,
2013-02-14 23:10:00,43.5,33.7,29.38,WSW,254,4.0,5.8,68,0.00,,---,0.00,VWS V14.00,2013-02-15 05:10:00,
2013-02-14 23:15:00,42.8,33.0,29.38,WSW,254,4.0,5.8,68,0.00,,---,0.00,VWS V14.00,2013-02-15 05:15:00,
2013-02-14 23:20:00,41.7,32.3,29.38,WSW,254,0.0,1.0,69,0.00,,---,0.00,VWS V14.00,2013-02-15 05:20:00,
2013-02-14 23:25:00,41.0,32.0,29.38,WSW,254,3.4,5.8,70,0.00,,---,0.00,VWS V14.00,2013-02-15 05:25:00,
2013-02-14 23:30:00,40.6,32.3,29.38,West,273,0.0,1.0,72,0.00,,---,0.00,VWS V14.00,2013-02-15 05:30:00,
2013-02-14 23:35:00,40.6,32.3,29.38,NNW,329,0.0,1.0,72,0.00,,---,0.00,VWS V14.00,2013-02-15 05:35:00,
2013-02-14 23:40:00,41.4,33.4,29.38,WNW,302,0.0,1.0,73,0.00,,---,0.00,VWS V14.00,2013-02-15 05:40:00,
2013-02-14 23:45:00,41.5,33.5,29.38,NW,305,0.0,1.0,73,0.00,,---,0.00,VWS V14.00,2013-02-15 05:45:00,
2013-02-14 23:50:00,41.7,34.1,29.38,North,5,0.0,1.0,74,0.00,,---,0.00,VWS V14.00,2013-02-15 05:50:00,
2013-02-14 23:55:00,41.7,34.1,29.38,NNW,345,0.0,5.8,74,0.00,,---,0.00,VWS V14.00,2013-02-15 05:55:00,